createdAt,value
2022-11-09T00:00:17.729Z,69.05
2022-11-09T00:02:45.169Z,69.46
2022-11-09T00:05:12.579Z,69.00
2022-11-09T00:07:40.002Z,68.58
2022-11-09T00:10:11.209Z,70.13
2022-11-09T00:12:39.960Z,69.60
2022-11-09T00:15:08.167Z,69.40
2022-11-09T00:17:35.562Z,69.16
2022-11-09T00:20:02.948Z,67.94
2022-11-09T00:22:30.356Z,68.04
2022-11-09T00:24:57.762Z,67.03
2022-11-09T00:27:25.218Z,68.89
2022-11-09T00:29:53.916Z,68.88
2022-11-09T00:32:26.650Z,69.92
2022-11-09T00:34:55.111Z,68.83
2022-11-09T00:37:22.533Z,69.55
2022-11-09T00:39:49.936Z,67.88
2022-11-09T00:42:17.360Z,68.53
2022-11-09T00:44:44.740Z,68.66
2022-11-09T00:47:13.477Z,68.67
2022-11-09T00:49:40.860Z,70.49
2022-11-09T00:52:08.295Z,71.14
2022-11-09T00:54:35.704Z,70.53
2022-11-09T00:57:03.131Z,69.73
2022-11-09T00:59:30.509Z,70.79
2022-11-09T01:01:57.895Z,69.07
2022-11-09T01:04:26.649Z,71.35
2022-11-09T01:06:54.160Z,70.09
2022-11-09T01:09:21.623Z,69.32
2022-11-09T01:11:49.024Z,70.84
2022-11-09T01:14:16.449Z,70.88
2022-11-09T01:16:43.855Z,70.14
2022-11-09T01:19:12.550Z,69.55
2022-11-09T01:21:41.280Z,69.25
2022-11-09T01:24:10.176Z,69.34
2022-11-09T01:26:37.895Z,69.14
2022-11-09T01:29:05.324Z,69.50
2022-11-09T01:31:32.830Z,71.68
2022-11-09T01:34:00.260Z,70.07
2022-11-09T01:36:27.697Z,68.86
2022-11-09T01:38:56.683Z,71.85
2022-11-09T01:41:26.958Z,71.30
2022-11-09T01:44:05.533Z,71.85
2022-11-09T01:46:37.034Z,70.21
2022-11-09T01:49:10.223Z,70.35
2022-11-09T01:51:41.040Z,70.40
2022-11-09T01:54:16.838Z,69.46
2022-11-09T01:56:45.374Z,69.49
2022-11-09T01:59:18.838Z,71.17
2022-11-09T02:01:46.886Z,71.31
2022-11-09T02:04:19.371Z,70.49
2022-11-09T02:06:48.438Z,72.58
2022-11-09T02:09:24.599Z,70.99
2022-11-09T02:11:52.030Z,71.21
2022-11-09T02:14:21.558Z,71.20
2022-11-09T02:16:49.158Z,70.29
2022-11-09T02:19:16.579Z,71.53
2022-11-09T02:21:45.408Z,72.28
2022-11-09T02:24:12.903Z,71.22
2022-11-09T02:26:45.043Z,70.48
2022-11-09T02:29:16.022Z,71.60
2022-11-09T02:31:47.176Z,71.83
2022-11-09T02:34:18.419Z,72.16
2022-11-09T02:36:47.618Z,70.93
2022-11-09T02:39:17.605Z,72.52
2022-11-09T02:41:49.375Z,72.14
2022-11-09T02:44:17.404Z,72.50
2022-11-09T02:46:44.870Z,72.68
2022-11-09T02:49:12.415Z,74.40
2022-11-09T02:51:39.823Z,74.34
2022-11-09T02:54:08.811Z,71.58
2022-11-09T02:56:36.255Z,74.02
2022-11-09T02:59:04.086Z,71.67
2022-11-09T03:01:31.917Z,71.30
2022-11-09T03:03:59.400Z,71.73
2022-11-09T03:06:34.664Z,71.17
2022-11-09T03:09:02.572Z,71.58
2022-11-09T03:11:31.547Z,71.46
2022-11-09T03:13:58.991Z,71.85
2022-11-09T03:16:26.453Z,72.24
2022-11-09T03:18:53.955Z,72.08
2022-11-09T03:21:22.056Z,76.37
2022-11-09T03:23:49.600Z,72.56
2022-11-09T03:26:17.774Z,73.15
2022-11-09T03:28:46.699Z,70.57
2022-11-09T03:31:14.508Z,72.93
2022-11-09T03:33:42.078Z,71.25
2022-11-09T03:36:10.035Z,70.57
2022-11-09T03:38:37.422Z,70.49
2022-11-09T03:41:05.026Z,70.04
2022-11-09T03:43:32.424Z,69.29
2022-11-09T03:46:01.164Z,68.97
2022-11-09T03:48:28.624Z,70.21
2022-11-09T03:50:56.007Z,68.91
2022-11-09T03:53:23.485Z,69.55
2022-11-09T03:55:50.899Z,69.24
2022-11-09T03:58:18.393Z,70.31
2022-11-09T04:00:45.800Z,69.90
2022-11-09T04:03:14.529Z,69.66
2022-11-09T04:05:41.915Z,70.47
2022-11-09T04:08:09.342Z,71.77
2022-11-09T04:10:36.783Z,72.08
2022-11-09T04:13:04.250Z,72.64
2022-11-09T04:15:31.742Z,74.40
2022-11-09T04:18:00.836Z,75.01
2022-11-09T04:20:30.882Z,73.81
2022-11-09T04:22:59.771Z,72.58
2022-11-09T04:25:28.694Z,71.98
2022-11-09T04:27:56.750Z,76.24
2022-11-09T04:30:24.354Z,72.81
2022-11-09T04:32:52.000Z,73.18
2022-11-09T04:35:19.402Z,71.92
2022-11-09T04:37:55.269Z,72.21
2022-11-09T04:40:23.134Z,73.19
2022-11-09T04:42:50.643Z,72.49
2022-11-09T04:45:18.587Z,74.20
2022-11-09T04:47:46.003Z,73.09
2022-11-09T04:50:14.075Z,76.36
2022-11-09T04:52:41.777Z,75.88
2022-11-09T04:55:10.566Z,73.69
2022-11-09T04:57:38.607Z,75.53
2022-11-09T05:00:06.634Z,73.34
2022-11-09T05:02:34.173Z,73.70
2022-11-09T05:05:01.554Z,73.36
2022-11-09T05:07:28.983Z,73.23
2022-11-09T05:09:56.415Z,72.31
2022-11-09T05:12:25.157Z,75.20
2022-11-09T05:14:52.551Z,77.26
2022-11-09T05:17:19.952Z,75.14
2022-11-09T05:19:47.362Z,77.86
2022-11-09T05:22:34.693Z,76.43
2022-11-09T05:25:02.103Z,79.66
2022-11-09T05:27:30.798Z,76.09
2022-11-09T05:29:58.248Z,76.06
2022-11-09T05:32:25.646Z,75.69
2022-11-09T05:34:53.057Z,76.20
2022-11-09T05:37:22.170Z,75.46
2022-11-09T05:39:49.905Z,76.97
2022-11-09T05:42:17.323Z,75.26
2022-11-09T05:44:46.063Z,79.60
2022-11-09T05:47:13.461Z,77.70
2022-11-09T05:49:40.863Z,77.61
2022-11-09T05:52:08.311Z,80.12
2022-11-09T05:54:35.747Z,76.92
2022-11-09T05:57:03.123Z,75.91
2022-11-09T05:59:30.583Z,77.58
2022-11-09T06:01:59.458Z,76.59
2022-11-09T06:04:26.919Z,76.94
2022-11-09T06:06:54.402Z,75.73
2022-11-09T06:09:21.864Z,75.24
2022-11-09T06:11:51.092Z,75.08
2022-11-09T06:14:18.675Z,75.63
2022-11-09T06:16:46.122Z,75.01
2022-11-09T06:19:14.847Z,75.30
2022-11-09T06:21:42.269Z,75.51
2022-11-09T06:24:10.435Z,74.40
2022-11-09T06:26:38.111Z,74.53
2022-11-09T06:29:06.009Z,75.52
2022-11-09T06:31:33.432Z,74.31
2022-11-09T06:34:00.852Z,74.40
2022-11-09T06:36:29.551Z,75.94
2022-11-09T06:38:56.937Z,75.06
2022-11-09T06:41:24.318Z,76.21
2022-11-09T06:43:51.754Z,77.53
2022-11-09T06:46:20.466Z,77.60
2022-11-09T06:48:53.336Z,81.45
2022-11-09T06:51:21.882Z,80.22
2022-11-09T06:53:50.726Z,80.24
2022-11-09T06:56:18.176Z,78.53
2022-11-09T06:58:45.568Z,81.79
2022-11-09T07:01:15.716Z,81.73
2022-11-09T07:03:46.250Z,81.66
2022-11-09T07:06:14.019Z,80.95
2022-11-09T07:08:42.145Z,86.00
2022-11-09T07:11:13.211Z,86.01
2022-11-09T07:13:42.396Z,84.74
2022-11-09T07:16:11.983Z,83.13
2022-11-09T07:18:39.620Z,82.46
2022-11-09T07:21:13.833Z,83.38
2022-11-09T07:23:42.341Z,84.56
2022-11-09T07:26:11.067Z,93.73
2022-11-09T07:28:38.470Z,91.67
2022-11-09T07:31:06.392Z,90.70
2022-11-09T07:33:34.113Z,91.44
2022-11-09T07:36:03.228Z,90.11
2022-11-09T07:38:31.090Z,88.26
2022-11-09T07:40:59.303Z,87.14
2022-11-09T07:43:28.617Z,85.00
2022-11-09T07:45:56.309Z,85.82
2022-11-09T07:48:24.044Z,86.91
2022-11-09T07:50:51.554Z,92.43
2022-11-09T07:53:19.388Z,88.44
2022-11-09T07:55:47.015Z,91.18
2022-11-09T07:58:16.470Z,88.59
2022-11-09T08:00:45.359Z,88.17
2022-11-09T08:03:12.842Z,89.41
2022-11-09T08:05:41.038Z,92.05
2022-11-09T08:08:11.242Z,89.64
2022-11-09T08:10:40.061Z,87.05
2022-11-09T08:13:09.149Z,87.88
2022-11-09T08:15:38.260Z,88.40
2022-11-09T08:18:09.149Z,87.28
2022-11-09T08:20:36.534Z,86.49
2022-11-09T08:23:05.028Z,86.27
2022-11-09T08:25:32.694Z,86.49
2022-11-09T08:28:00.139Z,85.31
2022-11-09T08:30:27.716Z,85.98
2022-11-09T08:32:55.174Z,88.61
2022-11-09T08:35:25.142Z,86.68
2022-11-09T08:37:53.626Z,86.30
2022-11-09T08:40:22.697Z,85.22
2022-11-09T08:42:50.414Z,84.26
2022-11-09T08:45:18.456Z,84.75
2022-11-09T08:47:46.225Z,85.08
2022-11-09T08:50:15.575Z,85.13
2022-11-09T08:52:44.280Z,85.20
2022-11-09T08:55:11.709Z,84.52
2022-11-09T08:57:39.094Z,84.72
2022-11-09T09:00:07.767Z,84.98
2022-11-09T09:02:35.196Z,84.88
2022-11-09T09:05:07.405Z,83.96
2022-11-09T09:07:35.364Z,84.40
2022-11-09T09:10:04.739Z,84.16
2022-11-09T09:12:32.355Z,84.63
2022-11-09T09:15:01.661Z,85.21
2022-11-09T09:17:29.180Z,85.48
2022-11-09T09:19:56.672Z,86.14
2022-11-09T09:22:24.202Z,84.27
2022-11-09T09:24:51.615Z,83.60
2022-11-09T09:27:20.522Z,83.59
2022-11-09T09:29:47.929Z,83.73
2022-11-09T09:32:15.338Z,83.11
2022-11-09T09:34:42.796Z,83.31
2022-11-09T09:37:10.191Z,83.18
2022-11-09T09:39:37.643Z,84.32
2022-11-09T09:42:08.285Z,87.25
2022-11-09T09:44:41.905Z,89.98
2022-11-09T09:47:14.406Z,87.50
2022-11-09T09:49:44.819Z,86.78
2022-11-09T09:52:20.949Z,82.17
2022-11-09T09:55:00.923Z,80.48
2022-11-09T09:57:31.266Z,82.13
2022-11-09T10:00:03.419Z,82.67
2022-11-09T10:02:32.522Z,81.77
2022-11-09T10:05:03.111Z,83.38
2022-11-09T10:07:34.326Z,84.16
2022-11-09T10:10:17.773Z,77.58
2022-11-09T10:13:05.806Z,80.28
2022-11-09T10:15:39.520Z,80.56
2022-11-09T10:18:24.404Z,81.11
2022-11-09T10:21:03.922Z,81.33
2022-11-09T10:23:42.346Z,81.53
2022-11-09T10:26:18.930Z,82.37
2022-11-09T10:31:42.006Z,81.66
2022-11-09T10:34:18.168Z,84.66
2022-11-09T10:36:53.464Z,80.84
2022-11-09T10:39:25.384Z,80.92
2022-11-09T10:41:53.073Z,81.91
2022-11-09T10:44:21.328Z,80.93
2022-11-09T10:47:11.515Z,80.98
2022-11-09T10:49:40.582Z,81.58
2022-11-09T10:52:32.664Z,82.70
2022-11-09T10:55:24.519Z,81.08
2022-11-09T10:57:55.678Z,81.79
2022-11-09T11:00:23.671Z,82.31
2022-11-09T11:02:53.208Z,81.16
2022-11-09T11:05:24.570Z,80.31
2022-11-09T11:07:52.007Z,81.12
2022-11-09T11:10:21.561Z,84.48
2022-11-09T11:12:58.061Z,82.28
2022-11-09T11:15:30.046Z,84.63
2022-11-09T11:18:04.812Z,80.91
2022-11-09T11:20:34.521Z,81.29
2022-11-09T11:23:13.064Z,80.89
2022-11-09T11:25:58.731Z,82.64
2022-11-09T11:28:32.960Z,80.82
2022-11-09T11:31:00.530Z,79.74
2022-11-09T11:33:29.736Z,80.10
2022-11-09T11:36:02.890Z,82.08
2022-11-09T11:38:35.656Z,82.47
2022-11-09T11:41:15.042Z,80.92
2022-11-09T11:43:49.491Z,78.87
2022-11-09T11:46:28.568Z,83.95
2022-11-09T11:49:21.709Z,81.82
2022-11-09T11:51:56.163Z,80.21
2022-11-09T11:54:32.641Z,79.13
2022-11-09T11:57:11.466Z,78.67
2022-11-09T11:59:54.211Z,77.94
2022-11-09T12:03:07.453Z,78.85
2022-11-09T12:06:01.595Z,79.13
2022-11-09T12:08:37.442Z,77.83
2022-11-09T12:11:14.192Z,79.36
2022-11-09T12:13:52.931Z,78.76
2022-11-09T12:16:28.831Z,79.60
2022-11-09T12:19:14.417Z,78.80
2022-11-09T12:21:52.463Z,80.22
2022-11-09T12:24:26.682Z,78.49
2022-11-09T12:27:31.467Z,78.09
2022-11-09T12:30:04.798Z,77.44
2022-11-09T12:32:39.261Z,80.55
2022-11-09T12:35:20.667Z,80.56
2022-11-09T12:37:53.494Z,79.29
2022-11-09T12:40:24.701Z,79.32
2022-11-09T12:42:57.859Z,77.88
2022-11-09T12:45:29.144Z,78.27
2022-11-09T12:47:59.823Z,79.64
2022-11-09T12:50:27.854Z,78.50
2022-11-09T12:52:57.283Z,77.73
2022-11-09T12:55:31.595Z,77.96
2022-11-09T12:58:01.104Z,81.63
2022-11-09T13:00:47.730Z,78.51
2022-11-09T13:03:21.565Z,78.13
2022-11-09T13:05:50.124Z,78.06
2022-11-09T13:08:26.154Z,78.52
2022-11-09T13:11:10.019Z,79.04
2022-11-09T13:13:37.942Z,78.16
2022-11-09T13:16:12.548Z,79.45
2022-11-09T13:18:52.223Z,79.02
2022-11-09T13:21:37.589Z,79.17
2022-11-09T13:24:53.731Z,79.50
2022-11-09T13:27:38.607Z,79.25
2022-11-09T13:30:40.418Z,80.23
2022-11-09T13:33:23.973Z,79.27
2022-11-09T13:36:23.597Z,77.86
2022-11-09T13:39:28.545Z,79.42
2022-11-09T13:41:56.001Z,80.89
2022-11-09T13:44:27.473Z,78.27
2022-11-09T13:46:55.491Z,79.60
2022-11-09T13:49:45.097Z,77.98
2022-11-09T13:52:51.553Z,79.88
2022-11-09T13:55:29.905Z,79.54
2022-11-09T13:58:02.724Z,81.52
2022-11-09T14:00:32.006Z,79.88
2022-11-09T14:03:03.805Z,78.31
2022-11-09T14:05:34.596Z,78.79
2022-11-09T14:08:04.961Z,80.38
2022-11-09T14:10:52.874Z,81.25
2022-11-09T14:13:35.641Z,79.32
2022-11-09T14:16:14.391Z,81.83
2022-11-09T14:18:50.150Z,81.64
2022-11-09T14:21:44.896Z,83.09
2022-11-09T14:24:17.217Z,83.14
2022-11-09T14:27:04.848Z,81.28
2022-11-09T14:29:33.816Z,82.00
2022-11-09T14:32:23.193Z,82.15
2022-11-09T14:34:50.784Z,80.44
2022-11-09T14:37:18.507Z,82.32
2022-11-09T14:39:49.286Z,83.49
2022-11-09T14:42:21.321Z,82.74
2022-11-09T14:44:49.565Z,82.93
2022-11-09T14:47:21.843Z,82.37
2022-11-09T14:49:50.513Z,82.74
2022-11-09T14:52:27.419Z,81.45
2022-11-09T14:54:55.313Z,82.83
2022-11-09T14:57:23.913Z,82.29
2022-11-09T14:59:51.752Z,80.80
2022-11-09T15:02:22.872Z,80.59
2022-11-09T15:04:54.846Z,83.49
2022-11-09T15:07:25.111Z,83.31
2022-11-09T15:09:56.442Z,82.17
2022-11-09T15:12:24.144Z,82.11
2022-11-09T15:14:54.247Z,83.24
2022-11-09T15:17:27.417Z,81.58
2022-11-09T15:19:57.557Z,83.35
2022-11-09T15:22:50.167Z,82.22
2022-11-09T15:25:23.877Z,82.76
2022-11-09T15:28:00.729Z,82.08
2022-11-09T15:30:33.351Z,82.82
2022-11-09T15:33:11.611Z,82.23
2022-11-09T15:35:49.237Z,82.83
2022-11-09T15:38:31.777Z,84.66
2022-11-09T15:40:59.359Z,84.75
2022-11-09T15:43:27.609Z,85.42
2022-11-09T15:45:55.538Z,84.22
2022-11-09T15:48:24.315Z,84.18
2022-11-09T15:50:52.867Z,83.64
2022-11-09T15:53:20.338Z,85.27
2022-11-09T15:55:48.026Z,84.78
2022-11-09T15:58:17.517Z,84.74
2022-11-09T16:00:45.376Z,83.96
2022-11-09T16:03:13.074Z,84.44
2022-11-09T16:05:41.766Z,83.70
2022-11-09T16:08:09.482Z,85.87
2022-11-09T16:10:38.838Z,88.24
2022-11-09T16:13:06.985Z,88.52
2022-11-09T16:15:35.716Z,86.22
2022-11-09T16:18:03.810Z,85.97
2022-11-09T16:20:31.526Z,85.71
2022-11-09T16:23:00.262Z,85.39
2022-11-09T16:25:27.825Z,86.03
2022-11-09T16:27:55.219Z,84.01
2022-11-09T16:30:22.733Z,84.36
2022-11-09T16:32:50.442Z,86.37
2022-11-09T16:35:33.258Z,87.49
2022-11-09T16:38:04.325Z,87.88
2022-11-09T16:40:31.920Z,88.39
2022-11-09T16:43:01.735Z,85.10
2022-11-09T16:45:33.350Z,85.63
2022-11-09T16:48:05.311Z,87.68
2022-11-09T16:50:32.746Z,87.11
2022-11-09T16:53:01.661Z,86.82
2022-11-09T16:55:29.079Z,87.39
2022-11-09T16:57:56.442Z,86.33
2022-11-09T17:00:27.655Z,88.61
2022-11-09T17:03:05.459Z,86.28
2022-11-09T17:05:32.855Z,87.78
2022-11-09T17:08:01.543Z,89.07
2022-11-09T17:10:28.968Z,88.63
2022-11-09T17:12:56.356Z,87.18
2022-11-09T17:15:24.081Z,87.72
2022-11-09T17:17:51.520Z,85.91
2022-11-09T17:20:19.195Z,85.93
2022-11-09T17:22:46.619Z,86.12
2022-11-09T17:25:16.358Z,89.01
2022-11-09T17:27:43.743Z,88.46
2022-11-09T17:30:11.763Z,89.85
2022-11-09T17:32:41.040Z,87.81
2022-11-09T17:35:08.904Z,86.01
2022-11-09T17:37:36.368Z,85.77
2022-11-09T17:40:03.910Z,85.18
2022-11-09T17:42:34.465Z,85.15
2022-11-09T17:45:01.837Z,86.14
2022-11-09T17:47:29.222Z,86.86
2022-11-09T17:49:56.583Z,88.27
2022-11-09T17:52:24.049Z,89.09
2022-11-09T17:54:51.486Z,87.10
2022-11-09T17:57:18.872Z,85.97
2022-11-09T17:59:47.692Z,86.13
2022-11-09T18:02:15.456Z,87.08
2022-11-09T18:04:43.284Z,87.46
2022-11-09T18:07:10.953Z,88.09
2022-11-09T18:09:42.553Z,86.88
2022-11-09T18:12:10.400Z,86.29
2022-11-09T18:14:37.998Z,85.76
2022-11-09T18:17:06.765Z,85.08
2022-11-09T18:19:34.277Z,85.13
2022-11-09T18:22:03.406Z,86.12
2022-11-09T18:24:32.965Z,84.89
2022-11-09T18:27:00.745Z,85.24
2022-11-09T18:29:28.143Z,85.53
2022-11-09T18:31:55.537Z,85.52
2022-11-09T18:34:24.316Z,85.88
2022-11-09T18:36:51.917Z,87.92
2022-11-09T18:39:19.348Z,86.13
2022-11-09T18:41:46.771Z,84.97
2022-11-09T18:44:14.402Z,86.32
2022-11-09T18:46:41.787Z,85.32
2022-11-09T18:49:14.063Z,83.68
2022-11-09T18:51:44.020Z,83.13
2022-11-09T18:54:11.390Z,85.14
2022-11-09T18:56:38.863Z,83.05
2022-11-09T18:59:06.469Z,82.93
2022-11-09T19:01:34.003Z,81.26
2022-11-09T19:04:01.893Z,80.13
2022-11-09T19:06:29.460Z,81.56
2022-11-09T19:09:15.733Z,81.10
2022-11-09T19:11:43.310Z,79.01
2022-11-09T19:14:11.148Z,79.78
2022-11-09T19:16:38.750Z,78.68
2022-11-09T19:19:06.233Z,78.40
2022-11-09T19:21:40.070Z,78.77
2022-11-09T19:24:12.174Z,78.76
2022-11-09T19:26:39.600Z,79.32
2022-11-09T19:29:07.938Z,78.45
2022-11-09T19:31:36.065Z,78.84
2022-11-09T19:34:03.556Z,79.31
2022-11-09T19:36:33.780Z,78.74
2022-11-09T19:39:02.133Z,79.38
2022-11-09T19:41:30.967Z,79.08
2022-11-09T19:43:59.676Z,79.53
2022-11-09T19:46:27.843Z,78.65
2022-11-09T19:48:55.258Z,79.38
2022-11-09T19:51:23.017Z,78.67
2022-11-09T19:53:51.490Z,79.86
2022-11-09T19:59:51.234Z,78.52
2022-11-09T20:02:18.679Z,78.87
2022-11-09T20:04:47.469Z,78.96
2022-11-09T20:07:14.928Z,80.49
2022-11-09T20:09:42.353Z,81.12
2022-11-09T20:12:28.539Z,82.85
2022-11-09T20:14:57.483Z,80.63
2022-11-09T20:17:25.192Z,80.25
2022-11-09T20:19:52.608Z,80.07
2022-11-09T20:22:20.038Z,80.13
2022-11-09T20:24:47.486Z,79.98
2022-11-09T20:27:15.517Z,80.29
2022-11-09T20:29:42.904Z,80.59
2022-11-09T20:32:12.463Z,80.59
2022-11-09T20:34:40.077Z,81.41
2022-11-09T20:37:07.515Z,81.38
2022-11-09T20:39:35.329Z,82.48
2022-11-09T20:42:02.719Z,81.37
2022-11-09T20:44:30.139Z,83.17
2022-11-09T20:46:57.680Z,82.43
2022-11-09T20:49:26.676Z,82.58
2022-11-09T20:51:54.108Z,83.90
2022-11-09T20:54:21.697Z,83.04
2022-11-09T20:58:03.522Z,83.91
2022-11-09T21:00:31.972Z,85.62
2022-11-09T21:03:00.087Z,85.29
2022-11-09T21:05:28.811Z,85.10
2022-11-09T21:07:56.307Z,86.14
2022-11-09T21:10:23.769Z,84.80
2022-11-09T21:12:53.970Z,85.37
2022-11-09T21:15:21.457Z,84.55
2022-11-09T21:17:49.197Z,86.12
2022-11-09T21:20:16.877Z,85.23
2022-11-09T21:26:54.249Z,90.73
2022-11-09T21:29:41.143Z,86.99
2022-11-09T21:32:10.664Z,87.18
2022-11-09T21:34:38.171Z,85.97
2022-11-09T21:37:05.863Z,85.37
2022-11-09T21:39:33.578Z,86.64
2022-11-09T21:42:03.338Z,86.36
2022-11-09T21:44:31.955Z,85.46
2022-11-09T21:46:59.770Z,85.80
2022-11-09T21:49:27.220Z,84.27
2022-11-09T21:51:55.335Z,85.76
2022-11-09T21:54:23.497Z,84.69
2022-11-09T21:56:52.047Z,83.81
2022-11-09T21:59:20.790Z,84.42
2022-11-09T22:01:48.310Z,87.37
2022-11-09T22:04:16.184Z,84.21
2022-11-09T22:06:44.085Z,85.46
2022-11-09T22:09:15.845Z,85.46
2022-11-09T22:12:00.810Z,86.19
2022-11-09T22:14:47.545Z,87.39
2022-11-09T22:17:15.024Z,87.07
2022-11-09T22:20:00.191Z,86.05
2022-11-09T22:22:30.720Z,83.86
2022-11-09T22:24:58.413Z,82.87
2022-11-09T22:27:25.961Z,83.88
2022-11-09T22:29:54.659Z,84.99
2022-11-09T22:32:22.539Z,83.47
2022-11-09T22:34:50.294Z,85.44
2022-11-09T22:37:17.935Z,84.30
2022-11-09T22:39:47.501Z,85.06
2022-11-09T22:42:15.499Z,83.12
2022-11-09T22:44:42.961Z,83.51
2022-11-09T22:47:11.790Z,83.98
2022-11-09T22:49:39.284Z,84.51
2022-11-09T22:52:06.864Z,87.34
2022-11-09T22:54:34.311Z,89.77
2022-11-09T22:57:01.776Z,88.43
2022-11-09T22:59:29.270Z,85.32
2022-11-09T23:01:56.712Z,88.48
2022-11-09T23:04:25.491Z,88.99
2022-11-09T23:06:53.311Z,82.23
2022-11-09T23:09:20.946Z,80.46
2022-11-09T23:11:48.353Z,79.33
2022-11-09T23:14:35.742Z,80.06
2022-11-09T23:17:23.153Z,80.04
2022-11-09T23:19:50.901Z,80.31
2022-11-09T23:22:18.347Z,77.46
2022-11-09T23:25:03.332Z,78.25
2022-11-09T23:27:30.949Z,75.99
2022-11-09T23:29:58.332Z,80.84
2022-11-09T23:32:25.722Z,76.99
2022-11-09T23:34:54.451Z,76.31
2022-11-09T23:37:21.888Z,79.30
2022-11-09T23:39:49.296Z,80.60
2022-11-09T23:42:16.700Z,77.93
2022-11-09T23:44:44.071Z,80.77
2022-11-09T23:47:11.443Z,76.91
2022-11-09T23:49:38.878Z,79.04
2022-11-09T23:52:07.781Z,76.60
2022-11-09T23:54:35.282Z,75.34
2022-11-09T23:57:02.697Z,74.04
2022-11-09T23:59:30.121Z,75.00
